ISAMU LIPU-LOWI
Flight info
| Callsign | ISAMU |
|---|---|
| Flight time | 0h 41m |
| Altitude | 9000 |
| Route | PUNW1 VIC DTS1 TNT DTN2 DTN1 PBS1 OZE PBW1 BRENNER LOWI/S LOWI/M3 |
| Aircraft | BE60/L-SBDFGIJ1RYZ/SB2 |
Departure
| Time | 2026-04-12 09:39 |
|---|---|
| Airport | Padova Gino Allegri Airfield (LIPU) |
Arrival
| Time | 2026-04-12 10:21 |
|---|---|
| Airport | Innsbruck Airport (LOWI) |
| Time | Latitude | Longitude | Altitude | Speed | Heading |
|---|---|---|---|---|---|
| 2026-04-12 09:39 | 45.38602 | 11.83556 | 566 ft | 133 kts | 218° |
| 2026-04-12 09:39 | 45.38491 | 11.83424 | 621 ft | 135 kts | 218° |
| 2026-04-12 09:39 | 45.37747 | 11.82552 | 952 ft | 141 kts | 210° |
| 2026-04-12 09:40 | 45.36813 | 11.81998 | 1141 ft | 152 kts | 187° |
| 2026-04-12 09:40 | 45.35771 | 11.81989 | 1446 ft | 148 kts | 165° |
| 2026-04-12 09:40 | 45.34803 | 11.82457 | 1803 ft | 143 kts | 149° |
| 2026-04-12 09:40 | 45.33968 | 11.83157 | 2128 ft | 141 kts | 143° |
| 2026-04-12 09:41 | 45.33090 | 11.83853 | 2336 ft | 151 kts | 161° |
| 2026-04-12 09:41 | 45.32041 | 11.83690 | 2507 ft | 160 kts | 205° |
| 2026-04-12 09:41 | 45.31322 | 11.82474 | 2681 ft | 166 kts | 249° |
| 2026-04-12 09:41 | 45.31285 | 11.80824 | 2725 ft | 175 kts | 286° |
| 2026-04-12 09:42 | 45.31895 | 11.79369 | 2874 ft | 168 kts | 320° |
| 2026-04-12 09:42 | 45.32871 | 11.78584 | 3080 ft | 160 kts | 349° |
| 2026-04-12 09:42 | 45.33991 | 11.78385 | 3076 ft | 168 kts | 359° |
| 2026-04-12 09:43 | 45.37813 | 11.77924 | 3006 ft | 192 kts | 359° |
| 2026-04-12 09:43 | 45.39174 | 11.77784 | 3013 ft | 195 kts | 359° |
| 2026-04-12 09:43 | 45.40526 | 11.77651 | 3002 ft | 195 kts | 359° |
| 2026-04-12 09:44 | 45.41857 | 11.77518 | 3004 ft | 194 kts | 359° |
| 2026-04-12 09:44 | 45.43206 | 11.77375 | 3010 ft | 195 kts | 359° |
| 2026-04-12 09:44 | 45.44559 | 11.77232 | 3010 ft | 195 kts | 359° |
| 2026-04-12 09:44 | 45.45907 | 11.77015 | 3000 ft | 197 kts | 346° |
| 2026-04-12 09:45 | 45.47152 | 11.76172 | 2996 ft | 199 kts | 333° |
| 2026-04-12 09:45 | 45.48357 | 11.75199 | 3006 ft | 199 kts | 333° |
| 2026-04-12 09:45 | 45.49560 | 11.74221 | 3006 ft | 199 kts | 333° |
| 2026-04-12 09:45 | 45.50764 | 11.73241 | 3002 ft | 199 kts | 334° |
| 2026-04-12 09:46 | 45.51958 | 11.72245 | 3000 ft | 199 kts | 333° |
| 2026-04-12 09:46 | 45.53190 | 11.71386 | 2999 ft | 196 kts | 345° |
| 2026-04-12 09:46 | 45.54484 | 11.70786 | 3004 ft | 195 kts | 347° |
| 2026-04-12 09:46 | 45.55783 | 11.70217 | 3004 ft | 195 kts | 347° |
| 2026-04-12 09:47 | 45.57067 | 11.69652 | 2981 ft | 195 kts | 346° |
| 2026-04-12 09:47 | 45.58377 | 11.69157 | 2988 ft | 197 kts | 348° |
| 2026-04-12 09:47 | 45.59747 | 11.68705 | 2999 ft | 207 kts | 348° |
| 2026-04-12 09:47 | 45.61174 | 11.68243 | 2998 ft | 212 kts | 348° |
| 2026-04-12 09:48 | 45.62612 | 11.67779 | 2995 ft | 212 kts | 348° |
| 2026-04-12 09:48 | 45.63935 | 11.66904 | 2991 ft | 213 kts | 319° |
| 2026-04-12 09:48 | 45.64900 | 11.65303 | 2994 ft | 213 kts | 308° |
| 2026-04-12 09:48 | 45.65794 | 11.63608 | 3018 ft | 212 kts | 307° |
| 2026-04-12 09:49 | 45.66683 | 11.61912 | 3019 ft | 216 kts | 307° |
| 2026-04-12 09:49 | 45.67573 | 11.60201 | 3126 ft | 212 kts | 307° |
| 2026-04-12 09:49 | 45.68450 | 11.58517 | 3263 ft | 209 kts | 307° |
| 2026-04-12 09:49 | 45.69302 | 11.56877 | 3393 ft | 208 kts | 307° |
| 2026-04-12 09:50 | 45.70155 | 11.55228 | 3591 ft | 205 kts | 307° |
| 2026-04-12 09:50 | 45.71002 | 11.53581 | 3808 ft | 205 kts | 307° |
| 2026-04-12 09:50 | 45.71847 | 11.51931 | 4031 ft | 206 kts | 307° |
| 2026-04-12 09:50 | 45.72691 | 11.50274 | 4259 ft | 206 kts | 307° |
| 2026-04-12 09:51 | 45.73543 | 11.48615 | 4508 ft | 207 kts | 307° |
| 2026-04-12 09:51 | 45.74394 | 11.46952 | 4746 ft | 207 kts | 307° |
| 2026-04-12 09:51 | 45.75250 | 11.45297 | 4989 ft | 207 kts | 307° |
| 2026-04-12 09:51 | 45.76106 | 11.43644 | 5251 ft | 207 kts | 307° |
| 2026-04-12 09:52 | 45.76969 | 11.41987 | 5507 ft | 207 kts | 307° |
| 2026-04-12 09:52 | 45.77822 | 11.40356 | 5732 ft | 208 kts | 307° |
| 2026-04-12 09:52 | 45.78697 | 11.38696 | 6006 ft | 209 kts | 307° |
| 2026-04-12 09:52 | 45.79581 | 11.37029 | 6277 ft | 210 kts | 307° |
| 2026-04-12 09:53 | 45.80474 | 11.35363 | 6539 ft | 211 kts | 307° |
| 2026-04-12 09:53 | 45.81370 | 11.33700 | 6810 ft | 211 kts | 307° |
| 2026-04-12 09:53 | 45.82272 | 11.32031 | 7063 ft | 211 kts | 307° |
| 2026-04-12 09:53 | 45.83175 | 11.30374 | 7300 ft | 211 kts | 307° |
| 2026-04-12 09:54 | 45.84093 | 11.28716 | 7567 ft | 212 kts | 306° |
| 2026-04-12 09:54 | 45.85030 | 11.27070 | 7841 ft | 214 kts | 307° |
| 2026-04-12 09:54 | 45.85981 | 11.25422 | 8172 ft | 214 kts | 307° |
| 2026-04-12 09:54 | 45.86936 | 11.23775 | 8486 ft | 216 kts | 307° |
| 2026-04-12 09:55 | 45.87915 | 11.22071 | 8539 ft | 228 kts | 305° |
| 2026-04-12 09:55 | 45.88914 | 11.20245 | 8536 ft | 234 kts | 305° |
| 2026-04-12 09:55 | 45.89915 | 11.18410 | 8538 ft | 238 kts | 306° |
| 2026-04-12 09:55 | 45.90926 | 11.16515 | 8541 ft | 240 kts | 305° |
| 2026-04-12 09:56 | 45.91947 | 11.14589 | 8538 ft | 245 kts | 304° |
| 2026-04-12 09:56 | 45.93156 | 11.12851 | 8539 ft | 250 kts | 326° |
| 2026-04-12 09:56 | 45.94821 | 11.12128 | 8548 ft | 253 kts | 355° |
| 2026-04-12 09:56 | 45.96578 | 11.12195 | 8546 ft | 253 kts | 3° |
| 2026-04-12 09:57 | 45.98333 | 11.12375 | 8549 ft | 252 kts | 4° |
| 2026-04-12 09:57 | 46.00062 | 11.12573 | 8557 ft | 247 kts | 4° |
| 2026-04-12 09:57 | 46.01763 | 11.12771 | 8556 ft | 244 kts | 4° |
| 2026-04-12 09:57 | 46.03431 | 11.12966 | 8562 ft | 243 kts | 4° |
| 2026-04-12 09:58 | 46.05110 | 11.13164 | 8563 ft | 238 kts | 4° |
| 2026-04-12 09:58 | 46.06755 | 11.13359 | 8565 ft | 238 kts | 4° |
| 2026-04-12 09:58 | 46.08411 | 11.13558 | 8569 ft | 240 kts | 4° |
| 2026-04-12 09:58 | 46.10075 | 11.13761 | 8573 ft | 239 kts | 4° |
| 2026-04-12 09:59 | 46.11727 | 11.13871 | 8572 ft | 237 kts | 356° |
| 2026-04-12 09:59 | 46.13363 | 11.13665 | 8576 ft | 235 kts | 352° |
| 2026-04-12 09:59 | 46.14992 | 11.13408 | 8573 ft | 234 kts | 352° |
| 2026-04-12 09:59 | 46.16608 | 11.13148 | 8583 ft | 234 kts | 354° |
| 2026-04-12 10:00 | 46.18183 | 11.13463 | 8581 ft | 233 kts | 19° |
| 2026-04-12 10:00 | 46.19677 | 11.14361 | 8588 ft | 232 kts | 26° |
| 2026-04-12 10:00 | 46.21119 | 11.15410 | 8588 ft | 232 kts | 28° |
| 2026-04-12 10:00 | 46.22551 | 11.16476 | 8574 ft | 230 kts | 28° |
| 2026-04-12 10:01 | 46.23960 | 11.17533 | 8607 ft | 229 kts | 28° |
| 2026-04-12 10:01 | 46.25377 | 11.18597 | 8605 ft | 230 kts | 28° |
| 2026-04-12 10:01 | 46.26799 | 11.19684 | 8596 ft | 231 kts | 30° |
| 2026-04-12 10:01 | 46.27725 | 11.20448 | 8597 ft | 230 kts | 31° |
| 2026-04-12 10:02 | 46.29556 | 11.21991 | 8599 ft | 230 kts | 31° |
| 2026-04-12 10:02 | 46.30937 | 11.23154 | 8597 ft | 230 kts | 31° |
| 2026-04-12 10:02 | 46.32320 | 11.24327 | 8599 ft | 230 kts | 31° |
| 2026-04-12 10:02 | 46.33258 | 11.25122 | 8528 ft | 230 kts | 31° |
| 2026-04-12 10:03 | 46.34651 | 11.26281 | 8527 ft | 231 kts | 28° |
| 2026-04-12 10:03 | 46.36075 | 11.27276 | 8528 ft | 230 kts | 25° |
| 2026-04-12 10:03 | 46.37531 | 11.28252 | 8529 ft | 230 kts | 25° |
| 2026-04-12 10:03 | 46.38985 | 11.29225 | 8528 ft | 231 kts | 25° |
| 2026-04-12 10:04 | 46.40494 | 11.30109 | 8531 ft | 232 kts | 16° |
| 2026-04-12 10:04 | 46.42035 | 11.30690 | 8518 ft | 232 kts | 13° |
| 2026-04-12 10:04 | 46.43626 | 11.31254 | 8523 ft | 233 kts | 13° |
| 2026-04-12 10:04 | 46.45182 | 11.31801 | 8520 ft | 233 kts | 13° |
| 2026-04-12 10:05 | 46.46756 | 11.32351 | 8522 ft | 232 kts | 13° |
| 2026-04-12 10:05 | 46.48329 | 11.32903 | 8520 ft | 232 kts | 13° |
| 2026-04-12 10:05 | 46.49901 | 11.33453 | 8520 ft | 232 kts | 13° |
| 2026-04-12 10:05 | 46.51470 | 11.34004 | 8523 ft | 233 kts | 13° |
| 2026-04-12 10:06 | 46.53050 | 11.34560 | 8518 ft | 234 kts | 13° |
| 2026-04-12 10:06 | 46.54625 | 11.35111 | 8519 ft | 233 kts | 13° |
| 2026-04-12 10:06 | 46.56195 | 11.35662 | 8515 ft | 231 kts | 13° |
| 2026-04-12 10:06 | 46.57764 | 11.36212 | 8520 ft | 233 kts | 13° |
| 2026-04-12 10:07 | 46.59335 | 11.36762 | 8514 ft | 232 kts | 13° |
| 2026-04-12 10:07 | 46.60908 | 11.37309 | 8517 ft | 233 kts | 13° |
| 2026-04-12 10:07 | 46.62486 | 11.37850 | 8524 ft | 234 kts | 13° |
| 2026-04-12 10:07 | 46.64052 | 11.38385 | 8526 ft | 234 kts | 13° |
| 2026-04-12 10:08 | 46.65652 | 11.38933 | 8515 ft | 238 kts | 13° |
| 2026-04-12 10:08 | 46.67247 | 11.39487 | 8508 ft | 234 kts | 13° |
| 2026-04-12 10:08 | 46.68842 | 11.40046 | 8506 ft | 232 kts | 13° |
| 2026-04-12 10:08 | 46.70398 | 11.40592 | 8511 ft | 234 kts | 13° |
| 2026-04-12 10:09 | 46.71979 | 11.41130 | 8513 ft | 233 kts | 13° |
| 2026-04-12 10:09 | 46.73533 | 11.41663 | 8710 ft | 224 kts | 13° |
| 2026-04-12 10:09 | 46.75029 | 11.42177 | 8958 ft | 218 kts | 13° |
| 2026-04-12 10:09 | 46.76496 | 11.42684 | 9135 ft | 216 kts | 13° |
| 2026-04-12 10:10 | 46.77951 | 11.43193 | 9297 ft | 214 kts | 13° |
| 2026-04-12 10:10 | 46.79397 | 11.43713 | 9462 ft | 214 kts | 13° |
| 2026-04-12 10:10 | 46.80865 | 11.44233 | 9513 ft | 222 kts | 13° |
| 2026-04-12 10:10 | 46.82400 | 11.44768 | 9500 ft | 229 kts | 12° |
| 2026-04-12 10:11 | 46.83952 | 11.45323 | 9512 ft | 231 kts | 13° |
| 2026-04-12 10:11 | 46.85535 | 11.45870 | 9509 ft | 235 kts | 11° |
| 2026-04-12 10:11 | 46.87132 | 11.46360 | 9668 ft | 235 kts | 11° |
| 2026-04-12 10:11 | 46.88739 | 11.46820 | 9896 ft | 235 kts | 10° |
| 2026-04-12 10:12 | 46.90350 | 11.47259 | 10038 ft | 236 kts | 10° |
| 2026-04-12 10:12 | 46.91945 | 11.47697 | 10260 ft | 236 kts | 10° |
| 2026-04-12 10:12 | 46.93556 | 11.48152 | 10451 ft | 237 kts | 10° |
| 2026-04-12 10:12 | 46.95200 | 11.48621 | 10486 ft | 245 kts | 10° |
| 2026-04-12 10:13 | 46.96884 | 11.49115 | 10490 ft | 247 kts | 10° |
| 2026-04-12 10:13 | 46.98577 | 11.49612 | 10490 ft | 249 kts | 10° |
| 2026-04-12 10:13 | 47.00289 | 11.50119 | 10496 ft | 253 kts | 10° |
| 2026-04-12 10:13 | 47.02030 | 11.50628 | 10492 ft | 254 kts | 11° |
| 2026-04-12 10:14 | 47.03789 | 11.50793 | 10492 ft | 255 kts | 350° |
| 2026-04-12 10:14 | 47.05531 | 11.50152 | 10348 ft | 264 kts | 341° |
| 2026-04-12 10:14 | 47.07300 | 11.49289 | 10204 ft | 271 kts | 339° |
| 2026-04-12 10:14 | 47.09098 | 11.48398 | 10019 ft | 275 kts | 339° |
| 2026-04-12 10:15 | 47.10914 | 11.47483 | 9786 ft | 277 kts | 339° |
| 2026-04-12 10:15 | 47.12741 | 11.46564 | 9527 ft | 277 kts | 339° |
| 2026-04-12 10:15 | 47.14505 | 11.45682 | 9258 ft | 261 kts | 339° |
| 2026-04-12 10:15 | 47.16120 | 11.44666 | 8986 ft | 245 kts | 332° |
| 2026-04-12 10:16 | 47.17606 | 11.43553 | 8725 ft | 235 kts | 330° |
| 2026-04-12 10:16 | 47.19054 | 11.42494 | 8445 ft | 230 kts | 333° |
| 2026-04-12 10:16 | 47.20491 | 11.41506 | 8171 ft | 226 kts | 333° |
| 2026-04-12 10:16 | 47.21943 | 11.40657 | 7885 ft | 223 kts | 338° |
| 2026-04-12 10:17 | 47.23262 | 11.39517 | 7595 ft | 219 kts | 322° |
| 2026-04-12 10:17 | 47.24673 | 11.38765 | 7308 ft | 217 kts | 358° |
| 2026-04-12 10:17 | 47.26118 | 11.39292 | 6904 ft | 218 kts | 32° |
| 2026-04-12 10:17 | 47.27099 | 11.40845 | 6389 ft | 197 kts | 64° |
| 2026-04-12 10:18 | 47.27589 | 11.42657 | 5668 ft | 186 kts | 72° |
| 2026-04-12 10:18 | 47.27776 | 11.44457 | 5000 ft | 176 kts | 99° |
| 2026-04-12 10:18 | 47.27227 | 11.45975 | 4572 ft | 164 kts | 139° |
| 2026-04-12 10:18 | 47.26143 | 11.46447 | 4356 ft | 172 kts | 195° |
| 2026-04-12 10:19 | 47.25306 | 11.45359 | 4176 ft | 167 kts | 250° |
| 2026-04-12 10:19 | 47.25474 | 11.43782 | 3903 ft | 154 kts | 292° |
| 2026-04-12 10:19 | 47.25898 | 11.42366 | 3481 ft | 142 kts | 294° |
| 2026-04-12 10:19 | 47.26181 | 11.41126 | 3141 ft | 117 kts | 283° |
| 2026-04-12 10:20 | 47.26326 | 11.40046 | 2840 ft | 102 kts | 278° |
| 2026-04-12 10:20 | 47.26387 | 11.38963 | 2672 ft | 108 kts | 271° |
| 2026-04-12 10:20 | 47.26373 | 11.37853 | 2438 ft | 104 kts | 264° |
| 2026-04-12 10:20 | 47.26293 | 11.36796 | 2146 ft | 104 kts | 260° |
| 2026-04-12 10:21 | 47.26175 | 11.35759 | 1940 ft | 98 kts | 258° |
| 2026-04-12 10:21 | 47.26076 | 11.34907 | 1902 ft | 62 kts | 261° |
| 2026-04-12 10:21 | 47.26031 | 11.34537 | 1901 ft | 8 kts | 301° |
| 2026-04-12 10:21 | 47.26040 | 11.34611 | 1900 ft | 24 kts | 82° |
| 2026-04-12 10:22 | 47.26075 | 11.34889 | 1902 ft | 21 kts | 83° |
| 2026-04-12 10:22 | 47.26093 | 11.35062 | 1897 ft | 14 kts | 79° |
| 2026-04-12 10:22 | 47.26105 | 11.35187 | 1898 ft | 12 kts | 79° |
| 2026-04-12 10:22 | 47.26059 | 11.35260 | 1896 ft | 12 kts | 170° |
| 2026-04-12 10:23 | 47.25985 | 11.35275 | 1901 ft | 9 kts | 172° |
| 2026-04-12 10:23 | 47.25935 | 11.35292 | 1901 ft | 7 kts | 149° |
| 2026-04-12 10:23 | 47.25927 | 11.35359 | 1901 ft | 8 kts | 85° |
| 2026-04-12 10:23 | 47.25890 | 11.35408 | 1901 ft | 9 kts | 180° |
| 2026-04-12 10:24 | 47.25871 | 11.35407 | 1901 ft | 0 kts | 183° |